Time;durP1;ratioP1;P1;durP2;ratioP2;P2;SDS_P1;SDS_P2;PMS_P1;PMS_P2;Temp;Humidity;BMP_temperature;BMP_pressure;BME280_temperature;BME280_humidity;BME280_pressure;Samples;Min_cycle;Max_cycle;Signal;HPM_P1;HPM_P2
2021/04/24 00:00:02;;;;;;;;;;;;;;;19.20;64.76;101476.41;5016329;28;1902;-59
2021/04/24 00:02:28;;;;;;;;;;;;;;;19.21;64.65;101496.91;5009257;28;1428;-59
2021/04/24 00:04:55;;;;;;;;;;;;;;;19.19;64.92;101496.16;5016802;28;1719;-59
2021/04/24 00:07:22;;;;;;;;;;;;;;;19.20;64.61;101503.22;5016836;28;1599;-59
2021/04/24 00:09:49;;;;;;;;;;;;;;;19.22;64.69;101517.41;5016638;28;1642;-59
2021/04/24 00:12:15;;;;;;;;;;;;;;;19.18;64.54;101494.44;5016016;28;1485;-60
2021/04/24 00:14:41;;;;;;;;;;;;;;;19.18;64.94;101503.38;5016497;28;1584;-59
2021/04/24 00:17:07;;;;;;;;;;;;;;;19.17;64.68;101500.78;5016713;28;1509;-59
2021/04/24 00:19:33;;;;;;;;;;;;;;;19.16;64.95;101497.25;5017534;28;1910;-59
2021/04/24 00:22:00;;;;;;;;;;;;;;;19.15;64.77;101508.94;5016661;28;1746;-59
2021/04/24 00:24:26;;;;;;;;;;;;;;;19.15;64.81;101511.63;5016536;28;1396;-59
2021/04/24 00:26:52;;;;;;;;;;;;;;;19.15;64.78;101513.47;5016331;28;1475;-59
2021/04/24 00:29:18;;;;;;;;;;;;;;;19.14;64.77;101509.94;5016554;28;1576;-60
2021/04/24 00:31:44;;;;;;;;;;;;;;;19.15;64.63;101514.31;5011590;28;1487;-59
2021/04/24 00:34:10;;;;;;;;;;;;;;;19.10;64.80;101508.47;5017319;28;951;-59
2021/04/24 00:36:37;;;;;;;;;;;;;;;19.13;64.79;101512.72;5016512;28;1726;-59
2021/04/24 00:39:05;;;;;;;;;;;;;;;19.12;64.95;101505.63;5016379;28;1977;-59
2021/04/24 00:41:31;;;;;;;;;;;;;;;19.14;64.99;101522.47;5011462;28;1550;-59
2021/04/24 00:43:57;;;;;;;;;;;;;;;19.10;64.96;101505.78;5016230;28;1635;-59
2021/04/24 00:46:23;;;;;;;;;;;;;;;19.11;64.63;101530.75;5011750;28;1450;-59
2021/04/24 00:48:49;;;;;;;;;;;;;;;19.09;64.76;101528.19;5016726;28;1130;-59
2021/04/24 00:51:15;;;;;;;;;;;;;;;19.10;64.90;101545.13;5016175;28;1765;-59
2021/04/24 00:53:41;;;;;;;;;;;;;;;19.10;64.53;101523.69;5016239;28;1576;-59
2021/04/24 00:56:08;;;;;;;;;;;;;;;19.10;65.08;101524.56;5011965;28;1246;-59
2021/04/24 00:58:34;;;;;;;;;;;;;;;19.10;64.92;101510.28;5015654;28;1973;-59
2021/04/24 01:01:01;;;;;;;;;;;;;;;19.07;65.09;101517.56;5015830;28;1483;-59
2021/04/24 01:03:27;;;;;;;;;;;;;;;19.05;64.69;101522.19;5015543;28;1257;-60
2021/04/24 01:05:53;;;;;;;;;;;;;;;19.05;64.92;101516.84;5015996;28;1628;-59
2021/04/24 01:08:19;;;;;;;;;;;;;;;19.05;64.86;101507.94;5015463;28;1572;-59
2021/04/24 01:10:45;;;;;;;;;;;;;;;19.07;64.87;101520.25;5007132;28;1403;-59
2021/04/24 01:13:14;;;;;;;;;;;;;;;19.05;65.16;101518.69;5015494;28;2025;-59
2021/04/24 01:15:40;;;;;;;;;;;;;;;19.05;65.05;101516.00;5015274;28;1773;-59
2021/04/24 01:18:08;;;;;;;;;;;;;;;19.07;64.89;101520.25;5015706;28;1898;-59
2021/04/24 01:20:34;;;;;;;;;;;;;;;19.05;64.88;101524.88;5015489;28;1769;-59
2021/04/24 01:23:01;;;;;;;;;;;;;;;19.05;64.77;101524.88;5015510;28;1031;-59
2021/04/24 01:25:28;;;;;;;;;;;;;;;19.04;64.85;101527.72;5006275;28;1719;-59
2021/04/24 01:27:55;;;;;;;;;;;;;;;19.02;64.64;101514.41;5015190;28;1703;-59
2021/04/24 01:30:24;;;;;;;;;;;;;;;19.03;64.78;101526.81;5011071;28;1790;-59
2021/04/24 01:32:50;;;;;;;;;;;;;;;19.03;64.83;101518.78;5015011;28;1860;-59
2021/04/24 01:35:18;;;;;;;;;;;;;;;19.03;64.76;101526.81;5016230;28;1007;-59
2021/04/24 01:37:44;;;;;;;;;;;;;;;19.03;64.58;101526.81;5014991;28;1715;-59
2021/04/24 01:40:13;;;;;;;;;;;;;;;19.02;64.79;101527.81;5014369;28;1973;-59
2021/04/24 01:42:39;;;;;;;;;;;;;;;19.02;64.74;101538.53;5010880;28;1723;-59
2021/04/24 01:45:07;;;;;;;;;;;;;;;19.01;64.82;101528.78;5015133;28;1580;-59
2021/04/24 01:47:33;;;;;;;;;;;;;;;18.98;64.75;101515.63;5014958;28;1423;-59
2021/04/24 01:49:59;;;;;;;;;;;;;;;18.98;64.84;101515.63;5015945;28;983;-59
2021/04/24 01:52:31;;;;;;;;;;;;;;;18.97;64.66;101513.06;5015025;28;1519;-59
2021/04/24 01:54:57;;;;;;;;;;;;;;;18.98;65.10;101520.97;5014308;28;1413;-59
2021/04/24 01:57:24;;;;;;;;;;;;;;;18.99;64.89;101533.41;5014510;28;1572;-59
2021/04/24 01:59:50;;;;;;;;;;;;;;;18.97;65.19;101532.66;5007391;28;1988;-59
2021/04/24 02:02:16;;;;;;;;;;;;;;;18.96;65.01;101532.75;5056749;23;2024;-49
2021/04/24 02:04:42;;;;;;;;;;;;;;;18.97;64.90;101526.44;5060617;28;1873;-50
2021/04/24 02:07:10;;;;;;;;;;;;;;;18.96;65.14;101533.66;5061415;28;1953;-50
2021/04/24 02:09:36;;;;;;;;;;;;;;;18.96;64.94;101527.41;5057057;28;1703;-50
2021/04/24 02:12:05;;;;;;;;;;;;;;;18.98;65.08;101526.34;5043397;22;3569;-59
2021/04/24 02:14:32;;;;;;;;;;;;;;;18.94;64.92;101540.06;5020476;28;1595;-59
2021/04/24 02:16:59;;;;;;;;;;;;;;;18.93;65.32;101547.25;5022142;28;1677;-59
2021/04/24 02:19:25;;;;;;;;;;;;;;;18.94;64.87;101535.59;5027194;28;1985;-59
2021/04/24 02:21:51;;;;;;;;;;;;;;;18.95;65.10;101536.44;5022944;28;1657;-59
2021/04/24 02:24:17;;;;;;;;;;;;;;;18.93;65.02;101547.25;5023118;28;1336;-59
2021/04/24 02:26:43;;;;;;;;;;;;;;;18.95;65.11;101542.66;5022782;28;1583;-59
2021/04/24 02:29:09;;;;;;;;;;;;;;;18.97;65.01;101537.16;5022915;28;1209;-59
2021/04/24 02:31:36;;;;;;;;;;;;;;;18.93;65.04;101527.66;5021182;28;1701;-59
2021/04/24 02:34:03;;;;;;;;;;;;;;;18.98;64.70;101531.69;5021051;28;1630;-59
2021/04/24 02:36:29;;;;;;;;;;;;;;;19.47;63.42;101548.50;5021420;28;1634;-59
2021/04/24 02:38:55;;;;;;;;;;;;;;;20.25;61.31;101523.53;5030042;28;1973;-59
2021/04/24 02:41:21;;;;;;;;;;;;;;;20.73;59.90;101534.88;5027989;28;1364;-59
2021/04/24 02:43:47;;;;;;;;;;;;;;;20.83;60.45;101538.50;5020768;28;1746;-59
2021/04/24 02:46:14;;;;;;;;;;;;;;;20.95;59.41;101550.06;5020583;28;1749;-59
2021/04/24 02:48:41;;;;;;;;;;;;;;;20.90;59.77;101530.78;5022488;28;1509;-59
2021/04/24 02:51:07;;;;;;;;;;;;;;;20.85;60.17;101547.31;5028168;28;1502;-59
2021/04/24 02:53:33;;;;;;;;;;;;;;;20.78;59.54;101549.63;5029374;28;1407;-59
2021/04/24 02:56:00;;;;;;;;;;;;;;;20.74;59.70;101550.88;5020149;28;1565;-59
2021/04/24 02:58:26;;;;;;;;;;;;;;;20.75;59.83;101552.59;5021154;28;1973;-59
2021/04/24 03:00:52;;;;;;;;;;;;;;;20.76;59.93;101548.06;5025013;28;1500;-59
2021/04/24 03:03:18;;;;;;;;;;;;;;;20.77;60.29;101544.38;5047005;28;1562;-59
2021/04/24 03:05:45;;;;;;;;;;;;;;;20.79;60.31;101537.03;5042412;28;1490;-59
2021/04/24 03:08:12;;;;;;;;;;;;;;;20.81;60.46;101552.09;5048276;28;1466;-59
2021/04/24 03:10:39;;;;;;;;;;;;;;;20.84;59.80;101564.41;5043505;28;1063;-59
2021/04/24 03:13:06;;;;;;;;;;;;;;;20.82;59.64;101563.69;5046553;28;1836;-59
2021/04/24 03:15:32;;;;;;;;;;;;;;;20.84;59.77;101556.34;5038120;28;1455;-59
2021/04/24 03:17:58;;;;;;;;;;;;;;;20.88;59.23;101557.78;5042254;28;1518;-59
2021/04/24 03:20:25;;;;;;;;;;;;;;;20.85;60.30;101552.69;5050162;28;1902;-59
2021/04/24 03:22:51;;;;;;;;;;;;;;;20.84;59.95;101564.41;5048521;28;1713;-59
2021/04/24 03:25:18;;;;;;;;;;;;;;;20.83;60.69;101562.69;5040317;28;1720;-59
2021/04/24 03:27:44;;;;;;;;;;;;;;;20.82;60.21;101569.06;5041712;28;1780;-59
2021/04/24 03:30:12;;;;;;;;;;;;;;;20.82;60.16;101569.06;5042269;28;1445;-59
2021/04/24 03:32:38;;;;;;;;;;;;;;;20.83;60.48;101565.38;5041913;28;1422;-59
2021/04/24 03:35:05;;;;;;;;;;;;;;;20.83;60.26;101562.69;5051118;28;988;-59
2021/04/24 03:37:31;;;;;;;;;;;;;;;20.88;60.87;101562.31;5052420;28;1521;-59
2021/04/24 03:39:58;;;;;;;;;;;;;;;20.93;59.76;101563.66;5041682;28;1979;-59
2021/04/24 03:42:25;;;;;;;;;;;;;;;20.97;59.79;101566.91;5046007;28;1499;-59
2021/04/24 03:44:51;;;;;;;;;;;;;;;20.99;59.72;101571.19;5045819;28;1687;-59
2021/04/24 03:47:17;;;;;;;;;;;;;;;21.01;60.44;101563.84;5045191;28;1649;-59
2021/04/24 03:49:43;;;;;;;;;;;;;;;21.01;59.85;101584.53;5048041;28;1098;-59
2021/04/24 03:52:09;;;;;;;;;;;;;;;21.09;60.20;101591.91;5051781;28;1757;-59
2021/04/24 03:54:35;;;;;;;;;;;;;;;21.16;59.89;101587.72;5043713;28;1433;-60
2021/04/24 03:57:04;;;;;;;;;;;;;;;20.85;60.56;101596.53;5043618;28;1398;-62
2021/04/24 03:59:30;;;;;;;;;;;;;;;20.42;62.31;101600.03;5046939;28;1909;-60
2021/04/24 04:01:56;;;;;;;;;;;;;;;20.20;63.07;101602.75;5046763;28;1760;-69
2021/04/24 04:04:22;;;;;;;;;;;;;;;20.07;62.57;101608.22;5045258;28;1574;-60
2021/04/24 04:06:48;;;;;;;;;;;;;;;19.99;63.21;101610.69;5044547;28;1256;-57
2021/04/24 04:09:14;;;;;;;;;;;;;;;19.90;63.63;101606.06;5047913;28;1618;-58
2021/04/24 04:11:40;;;;;;;;;;;;;;;19.88;63.32;101602.63;5038780;28;1474;-58
2021/04/24 04:14:07;;;;;;;;;;;;;;;19.80;63.51;101604.09;5042394;28;1487;-60
2021/04/24 04:16:33;;;;;;;;;;;;;;;19.75;63.70;101617.00;5044836;28;1451;-57
2021/04/24 04:19:00;;;;;;;;;;;;;;;19.73;63.23;101621.63;5042438;28;1968;-59
2021/04/24 04:21:26;;;;;;;;;;;;;;;19.70;63.35;101624.53;5049960;28;1382;-59
2021/04/24 04:23:52;;;;;;;;;;;;;;;19.63;64.17;101624.13;5043934;28;1554;-63
2021/04/24 04:26:18;;;;;;;;;;;;;;;19.61;64.06;101635.97;5040133;28;1404;-56
2021/04/24 04:28:44;;;;;;;;;;;;;;;19.60;63.92;101628.91;5048500;28;1384;-59
2021/04/24 04:31:11;;;;;;;;;;;;;;;19.56;64.16;101627.44;5051000;28;1300;-59
2021/04/24 04:33:37;;;;;;;;;;;;;;;19.57;64.40;101634.50;5050269;28;1209;-59
2021/04/24 04:36:05;;;;;;;;;;;;;;;19.57;64.36;101645.22;5052086;28;1458;-59
2021/04/24 04:38:31;;;;;;;;;;;;;;;19.54;64.84;101645.47;5052002;28;1902;-57
2021/04/24 04:40:57;;;;;;;;;;;;;;;19.53;64.58;101636.56;5050931;28;1466;-57
2021/04/24 04:43:23;;;;;;;;;;;;;;;19.53;64.42;101633.88;5047181;28;1022;-57
2021/04/24 04:45:50;;;;;;;;;;;;;;;19.54;64.27;101621.34;5043385;28;1441;-58
2021/04/24 04:48:17;;;;;;;;;;;;;;;19.55;64.85;101625.72;5047145;28;1513;-58
2021/04/24 04:50:43;;;;;;;;;;;;;;;19.55;64.34;101625.72;5040334;28;1289;-56
2021/04/24 04:53:09;;;;;;;;;;;;;;;19.46;64.77;101638.88;5046739;28;1187;-54
2021/04/24 04:55:36;;;;;;;;;;;;;;;19.45;64.38;101637.13;5049224;28;1903;-54
2021/04/24 04:58:03;;;;;;;;;;;;;;;19.51;64.49;101640.34;5045071;28;1585;-48
2021/04/24 05:00:29;;;;;;;;;;;;;;;19.53;64.57;101641.06;5046297;28;1906;-55
2021/04/24 05:02:55;;;;;;;;;;;;;;;19.57;64.18;101650.59;5044409;28;1455;-49
2021/04/24 05:05:22;;;;;;;;;;;;;;;19.64;64.66;101639.28;5046632;28;1394;-52
2021/04/24 05:07:49;;;;;;;;;;;;;;;19.66;64.32;101645.38;5049016;28;1359;-59
2021/04/24 05:10:16;;;;;;;;;;;;;;;19.68;64.47;101639.91;5051070;28;1235;-59
2021/04/24 05:12:42;;;;;;;;;;;;;;;19.62;65.00;101632.31;5042084;28;1367;-58
2021/04/24 05:15:09;;;;;;;;;;;;;;;19.56;65.40;101646.22;5043147;28;1255;-49
2021/04/24 05:17:35;;;;;;;;;;;;;;;19.52;65.31;101647.41;5040355;28;1219;-49
2021/04/24 05:20:01;;;;;;;;;;;;;;;19.49;65.67;101643.13;5046648;28;1898;-58
2021/04/24 05:22:28;;;;;;;;;;;;;;;19.51;65.44;101640.34;5049884;28;1559;-50
2021/04/24 05:24:56;;;;;;;;;;;;;;;19.53;65.80;101639.22;5041464;28;1576;-58
2021/04/24 05:27:22;;;;;;;;;;;;;;;19.55;65.84;101631.94;5043844;28;1243;-59
2021/04/24 05:29:48;;;;;;;;;;;;;;;19.71;65.30;101637.00;5041244;28;1446;-60
2021/04/24 05:32:14;;;;;;;;;;;;;;;19.70;64.42;101632.59;5043960;28;1359;-54
2021/04/24 05:34:40;;;;;;;;;;;;;;;19.75;63.99;101630.41;5046813;28;1471;-59
2021/04/24 05:37:07;;;;;;;;;;;;;;;19.54;62.10;101629.38;5044365;28;1497;-55
2021/04/24 05:39:34;;;;;;;;;;;;;;;19.42;58.99;101639.22;5043610;28;1906;-57
2021/04/24 05:42:00;;;;;;;;;;;;;;;19.35;63.85;101636.13;5044180;28;1385;-57
2021/04/24 05:44:26;;;;;;;;;;;;;;;19.31;61.11;101639.19;5041082;28;1566;-56
2021/04/24 05:46:52;;;;;;;;;;;;;;;19.30;62.42;101630.28;5039626;28;1490;-57
2021/04/24 05:49:19;;;;;;;;;;;;;;;19.27;63.21;101630.50;5045774;28;1356;-57
2021/04/24 05:51:45;;;;;;;;;;;;;;;19.27;63.54;101643.91;5047144;28;1562;-56
2021/04/24 05:54:11;;;;;;;;;;;;;;;19.23;63.81;101637.91;5038931;28;1388;-57
2021/04/24 05:56:38;;;;;;;;;;;;;;;19.24;63.47;101630.75;5046105;28;1645;-56
2021/04/24 05:59:04;;;;;;;;;;;;;;;19.32;63.16;101636.38;5041371;28;1902;-56
2021/04/24 06:01:30;;;;;;;;;;;;;;;19.48;63.00;101631.56;5040257;28;1428;-56
2021/04/24 06:03:57;;;;;;;;;;;;;;;19.45;62.62;101626.41;5047065;28;1474;-57
2021/04/24 06:06:23;;;;;;;;;;;;;;;19.50;62.86;101622.50;5043133;28;1443;-57
2021/04/24 06:08:49;;;;;;;;;;;;;;;19.53;62.47;101627.66;5044236;28;2000;-57
2021/04/24 06:11:15;;;;;;;;;;;;;;;19.55;62.88;101637.28;5045166;28;1519;-56
2021/04/24 06:13:41;;;;;;;;;;;;;;;19.48;62.74;101639.59;5033715;28;1294;-56
2021/04/24 06:16:08;;;;;;;;;;;;;;;19.41;63.37;101641.03;5041314;28;1059;-55
2021/04/24 06:18:34;;;;;;;;;;;;;;;19.36;63.15;101648.59;5048474;28;1910;-57
2021/04/24 06:21:00;;;;;;;;;;;;;;;19.42;63.64;101658.84;5049734;28;1410;-57
2021/04/24 06:23:26;;;;;;;;;;;;;;;19.47;63.08;101645.91;5046286;28;1375;-57
2021/04/24 06:25:52;;;;;;;;;;;;;;;19.46;63.16;101649.59;5048710;28;1409;-55
2021/04/24 06:28:18;;;;;;;;;;;;;;;19.41;63.22;101649.06;5041344;28;1355;-56
2021/04/24 06:30:45;;;;;;;;;;;;;;;19.42;63.14;101664.22;5046554;28;1510;-55
2021/04/24 06:33:11;;;;;;;;;;;;;;;19.42;63.59;101647.28;5045684;28;1517;-57
2021/04/24 06:35:37;;;;;;;;;;;;;;;19.45;63.48;101655.06;5048358;28;1385;-60
2021/04/24 06:38:03;;;;;;;;;;;;;;;19.47;63.74;101655.81;5049331;28;1299;-58
2021/04/24 06:40:29;;;;;;;;;;;;;;;19.42;63.70;101650.81;5046282;28;1905;-60
2021/04/24 06:42:55;;;;;;;;;;;;;;;19.39;63.76;101659.06;5040189;28;1267;-58
2021/04/24 06:45:22;;;;;;;;;;;;;;;19.36;63.92;101664.69;5046578;28;1295;-59
2021/04/24 06:47:49;;;;;;;;;;;;;;;19.32;64.04;101657.84;5049586;28;1351;-59
2021/04/24 06:50:15;;;;;;;;;;;;;;;19.31;63.95;101661.47;5050649;28;1514;-61
2021/04/24 06:52:41;;;;;;;;;;;;;;;19.27;64.07;101671.56;5043973;28;1445;-67
2021/04/24 06:55:08;;;;;;;;;;;;;;;19.23;64.26;101658.53;5047035;28;1419;-63
2021/04/24 06:57:35;;;;;;;;;;;;;;;19.23;64.62;101658.53;5041920;28;1450;-66
2021/04/24 07:00:01;;;;;;;;;;;;;;;19.30;64.00;101666.94;5049917;28;1902;-63
2021/04/24 07:02:27;;;;;;;;;;;;;;;19.24;64.77;101673.66;5047059;28;1421;-60
2021/04/24 07:04:54;;;;;;;;;;;;;;;19.23;64.03;101671.94;5040048;28;1704;-63
2021/04/24 07:07:20;;;;;;;;;;;;;;;19.22;64.53;101667.56;5037194;28;1425;-61
2021/04/24 07:09:46;;;;;;;;;;;;;;;19.20;64.59;101669.47;5042416;28;1499;-60
2021/04/24 07:12:12;;;;;;;;;;;;;;;19.18;64.22;101671.41;5043958;28;1431;-70
2021/04/24 07:14:38;;;;;;;;;;;;;;;18.95;64.60;101625.72;5043505;28;1316;-60
2021/04/24 07:17:04;;;;;;;;;;;;;;;19.20;64.82;101673.03;5041631;28;1439;-62
2021/04/24 07:19:30;;;;;;;;;;;;;;;19.21;64.55;101677.41;5043739;28;1976;-65
2021/04/24 07:21:57;;;;;;;;;;;;;;;19.19;64.43;101665.09;5044521;28;1454;-66
2021/04/24 07:24:24;;;;;;;;;;;;;;;19.21;63.86;101668.50;5048268;28;1450;-65
2021/04/24 07:26:50;;;;;;;;;;;;;;;19.24;64.11;101673.66;5049983;28;1450;-62
2021/04/24 07:29:16;;;;;;;;;;;;;;;19.21;64.19;101657.78;5044820;28;1188;-60
2021/04/24 07:31:43;;;;;;;;;;;;;;;19.19;64.14;101668.63;5048911;28;1984;-63
2021/04/24 07:34:10;;;;;;;;;;;;;;;19.21;64.28;101660.47;5052516;28;1204;-66
2021/04/24 07:36:37;;;;;;;;;;;;;;;19.17;64.37;101677.75;5043506;28;1337;-62
2021/04/24 07:39:04;;;;;;;;;;;;;;;19.11;60.82;101667.50;5045350;28;1989;-61
2021/04/24 07:41:30;;;;;;;;;;;;;;;19.04;63.16;101676.00;5041344;28;1613;-65
2021/04/24 07:43:56;;;;;;;;;;;;;;;19.10;63.00;101672.00;5045797;28;1431;-59
2021/04/24 07:46:22;;;;;;;;;;;;;;;19.13;63.33;101661.03;5047095;28;1422;-61
2021/04/24 07:48:48;;;;;;;;;;;;;;;19.12;64.09;101671.88;5045584;28;1316;-60
2021/04/24 07:51:15;;;;;;;;;;;;;;;19.11;63.84;101691.63;5049773;28;1402;-61
2021/04/24 07:53:42;;;;;;;;;;;;;;;19.11;63.86;101680.88;5050236;28;1316;-58
2021/04/24 07:56:09;;;;;;;;;;;;;;;19.07;63.74;101691.81;5048643;28;1272;-60
2021/04/24 07:58:35;;;;;;;;;;;;;;;19.07;63.81;101691.81;5038991;28;1914;-62
2021/04/24 08:01:01;;;;;;;;;;;;;;;19.07;63.88;101681.09;5048799;28;2002;-62
2021/04/24 08:03:27;;;;;;;;;;;;;;;19.12;63.99;101687.94;5039453;28;1482;-61
2021/04/24 08:05:53;;;;;;;;;;;;;;;19.01;58.11;101678.03;5044828;28;1415;-63
2021/04/24 08:08:19;;;;;;;;;;;;;;;18.94;59.20;101695.53;5051488;28;1490;-61
2021/04/24 08:10:45;;;;;;;;;;;;;;;18.92;63.83;101705.50;5048173;28;1485;-62
2021/04/24 08:13:13;;;;;;;;;;;;;;;18.87;62.97;101708.53;5045273;28;1403;-61
2021/04/24 08:15:39;;;;;;;;;;;;;;;18.87;62.90;101711.22;5047879;28;1360;-59
2021/04/24 08:18:05;;;;;;;;;;;;;;;18.89;62.91;101701.22;5049445;28;1380;-61
2021/04/24 08:20:31;;;;;;;;;;;;;;;18.94;63.23;101711.59;5046082;28;1906;-61
2021/04/24 08:22:57;;;;;;;;;;;;;;;18.93;64.25;101716.13;5047667;28;1665;-61
2021/04/24 08:25:23;;;;;;;;;;;;;;;18.91;63.67;101715.38;5045644;28;1255;-63
2021/04/24 08:27:49;;;;;;;;;;;;;;;18.95;63.58;101711.50;5042252;28;2034;-61
2021/04/24 08:30:17;;;;;;;;;;;;;;;19.03;63.34;101722.50;5047484;28;1215;-60
2021/04/24 08:32:44;;;;;;;;;;;;;;;18.97;63.57;101706.88;5041767;28;1542;-59
2021/04/24 08:35:11;;;;;;;;;;;;;;;19.11;63.93;101707.69;5048838;28;1263;-59
2021/04/24 08:37:37;;;;;;;;;;;;;;;19.10;63.74;101704.19;5048093;28;1481;-61
2021/04/24 08:40:04;;;;;;;;;;;;;;;19.15;63.75;101699.31;5046154;28;1898;-57
2021/04/24 08:42:30;;;;;;;;;;;;;;;19.15;64.05;101693.94;5048329;28;1451;-58
2021/04/24 08:44:56;;;;;;;;;;;;;;;19.10;64.07;101697.94;5044253;28;1389;-58
2021/04/24 08:47:24;;;;;;;;;;;;;;;19.10;64.27;101695.25;5042916;28;1320;-58
2021/04/24 08:49:53;;;;;;;;;;;;;;;19.07;64.36;101690.97;5047282;28;1325;-58
2021/04/24 08:52:20;;;;;;;;;;;;;;;19.10;63.89;101690.78;5047253;28;1392;-58
2021/04/24 08:54:46;;;;;;;;;;;;;;;19.08;63.71;101693.56;5045095;28;1407;-58
2021/04/24 08:57:12;;;;;;;;;;;;;;;19.10;63.50;101689.88;5041236;28;1192;-58
2021/04/24 08:59:38;;;;;;;;;;;;;;;19.09;63.07;101702.44;5044339;28;1926;-58
2021/04/24 09:02:04;;;;;;;;;;;;;;;19.02;62.90;101690.44;5047849;28;1558;-59
2021/04/24 09:04:32;;;;;;;;;;;;;;;19.02;62.93;101677.94;5046100;28;1282;-59
2021/04/24 09:06:58;;;;;;;;;;;;;;;19.02;63.07;101659.16;5046182;28;1463;-59
2021/04/24 09:09:26;;;;;;;;;;;;;;;19.05;62.98;101672.31;5047662;28;1393;-59
2021/04/24 09:11:56;;;;;;;;;;;;;;;19.00;63.62;101670.94;5032596;28;1253;-58
2021/04/24 09:14:23;;;;;;;;;;;;;;;19.03;63.57;101668.06;5025332;28;1396;-58
2021/04/24 09:16:51;;;;;;;;;;;;;;;19.02;63.79;101664.53;5021112;28;1393;-58
2021/04/24 09:19:41;;;;;;;;;;;;;;;18.81;64.40;101663.41;5029702;28;1902;-60
2021/04/24 09:22:19;;;;;;;;;;;;;;;19.00;64.01;101661.09;5002433;28;1346;-62
2021/04/24 09:24:46;;;;;;;;;;;;;;;19.05;64.03;101650.88;5019616;28;1581;-63
2021/04/24 09:27:12;;;;;;;;;;;;;;;19.13;64.41;101650.31;5023851;28;1575;-62
2021/04/24 09:29:38;;;;;;;;;;;;;;;19.08;64.65;101653.34;5027618;28;1930;-58
2021/04/24 09:32:15;;;;;;;;;;;;;;;19.10;64.43;101638.94;5026960;28;1420;-62
2021/04/24 09:34:41;;;;;;;;;;;;;;;18.96;62.95;101643.53;5021387;28;1788;-63
2021/04/24 09:37:13;;;;;;;;;;;;;;;18.90;63.16;101643.13;5023398;28;1745;-62
2021/04/24 09:39:44;;;;;;;;;;;;;;;18.85;64.18;101630.06;5018521;28;1910;-62
2021/04/24 09:42:25;;;;;;;;;;;;;;;18.83;65.02;101635.53;5020494;28;1892;-59
2021/04/24 09:44:51;;;;;;;;;;;;;;;18.84;65.09;101617.63;5022521;28;1602;-62
2021/04/24 09:47:17;;;;;;;;;;;;;;;18.85;64.96;101627.38;5021642;28;1327;-62
2021/04/24 09:49:43;;;;;;;;;;;;;;;18.83;64.89;101634.69;5030886;28;1069;-62
2021/04/24 09:52:11;;;;;;;;;;;;;;;18.81;65.40;101628.59;5022006;28;1690;-59
2021/04/24 09:54:39;;;;;;;;;;;;;;;18.83;64.96;101623.97;5024791;28;1579;-62
2021/04/24 09:57:08;;;;;;;;;;;;;;;18.82;64.65;101616.88;5018724;28;1646;-59
2021/04/24 09:59:50;;;;;;;;;;;;;;;18.81;65.00;101608.00;5028635;28;1906;-59
2021/04/24 10:02:27;;;;;;;;;;;;;;;18.83;65.58;101607.88;5027334;28;1443;-59
2021/04/24 10:05:04;;;;;;;;;;;;;;;18.80;65.19;101597.38;5026501;28;1726;-58
2021/04/24 10:07:33;;;;;;;;;;;;;;;18.81;65.15;101609.81;5028230;28;1424;-62
2021/04/24 10:09:59;;;;;;;;;;;;;;;18.81;65.28;101599.09;5032455;28;1420;-59
2021/04/24 10:12:26;;;;;;;;;;;;;;;18.80;65.57;101589.34;5047663;28;1375;-62
2021/04/24 10:14:53;;;;;;;;;;;;;;;18.76;65.13;101590.50;5044317;28;1395;-62
2021/04/24 10:17:20;;;;;;;;;;;;;;;18.81;65.28;101604.47;5044691;28;1346;-62
2021/04/24 10:19:46;;;;;;;;;;;;;;;18.79;65.42;101598.34;5046990;28;1903;-62
2021/04/24 10:22:13;;;;;;;;;;;;;;;18.80;65.46;101584.00;5051041;28;1403;-62
2021/04/24 10:24:40;;;;;;;;;;;;;;;18.79;65.43;101584.94;5047374;28;1582;-59
2021/04/24 10:27:06;;;;;;;;;;;;;;;18.79;65.35;101584.94;5050376;28;1398;-62
2021/04/24 10:29:33;;;;;;;;;;;;;;;18.78;65.47;101588.56;5045589;28;1275;-62
2021/04/24 10:32:00;;;;;;;;;;;;;;;18.80;65.57;101600.06;5049226;28;1580;-62
2021/04/24 10:34:26;;;;;;;;;;;;;;;18.77;65.54;101576.16;5049831;28;1286;-62
2021/04/24 10:36:52;;;;;;;;;;;;;;;18.80;65.39;101584.00;5036652;28;1412;-58
2021/04/24 10:39:20;;;;;;;;;;;;;;;18.78;65.33;101572.50;5037842;28;1903;-59
2021/04/24 10:41:47;;;;;;;;;;;;;;;18.78;65.47;101583.22;5041482;28;1422;-62
2021/04/24 10:44:15;;;;;;;;;;;;;;;18.78;65.47;101578.72;5037754;28;1582;-62
2021/04/24 10:46:47;;;;;;;;;;;;;;;18.80;65.42;101571.47;5039179;28;1529;-62
2021/04/24 10:49:20;;;;;;;;;;;;;;;18.77;65.39;101571.66;5039380;28;996;-62
2021/04/24 10:51:53;;;;;;;;;;;;;;;18.76;65.39;101566.41;5035531;28;1597;-59
2021/04/24 10:54:19;;;;;;;;;;;;;;;18.76;65.35;101559.25;5041448;28;1362;-59
2021/04/24 10:56:45;;;;;;;;;;;;;;;18.78;65.30;101556.41;5038856;28;1306;-59
2021/04/24 10:59:18;;;;;;;;;;;;;;;18.76;65.55;101548.53;5039347;28;1910;-62
2021/04/24 11:01:59;;;;;;;;;;;;;;;18.76;65.40;101559.25;5039497;28;1520;-62
2021/04/24 11:04:42;;;;;;;;;;;;;;;18.81;65.26;101561.59;5020246;28;1546;-58
2021/04/24 11:07:35;;;;;;;;;;;;;;;18.79;65.54;101547.44;5041046;28;1644;-59
2021/04/24 11:10:20;;;;;;;;;;;;;;;18.81;65.48;101540.16;5002609;28;1621;-62
2021/04/24 11:12:47;;;;;;;;;;;;;;;18.81;65.44;101548.19;5035052;28;1318;-62
2021/04/24 11:15:15;;;;;;;;;;;;;;;18.83;65.24;101540.91;5045750;28;1327;-59
2021/04/24 11:17:41;;;;;;;;;;;;;;;18.83;65.32;101527.50;5042735;28;1387;-59
2021/04/24 11:20:10;;;;;;;;;;;;;;;18.85;65.22;101536.28;5042957;28;1902;-62
2021/04/24 11:22:37;;;;;;;;;;;;;;;18.87;65.09;101528.97;5047804;28;1391;-58
2021/04/24 11:25:23;;;;;;;;;;;;;;;18.86;65.04;101533.47;5044956;28;1265;-59
2021/04/24 11:28:01;;;;;;;;;;;;;;;18.88;64.93;101541.41;5035131;28;1569;-62
2021/04/24 11:30:46;;;;;;;;;;;;;;;18.92;64.98;101542.00;5034961;28;1398;-61
2021/04/24 11:33:31;;;;;;;;;;;;;;;18.87;65.13;101542.38;5035264;28;1668;-62
2021/04/24 11:36:16;;;;;;;;;;;;;;;18.83;65.06;101522.97;5030775;28;1486;-59
2021/04/24 11:39:09;;;;;;;;;;;;;;;18.88;65.02;101533.38;5040090;28;1445;-62
2021/04/24 11:41:37;;;;;;;;;;;;;;;18.88;64.92;101522.66;4988375;28;1487;-61
2021/04/24 11:44:17;;;;;;;;;;;;;;;18.86;65.10;101524.56;5046363;28;1391;-58
2021/04/24 11:46:44;;;;;;;;;;;;;;;18.88;64.80;101525.34;5041937;28;1658;-59
2021/04/24 11:49:11;;;;;;;;;;;;;;;18.86;64.83;101519.22;5048414;28;1207;-58
2021/04/24 11:51:38;;;;;;;;;;;;;;;18.86;64.92;101528.13;5042200;28;1213;-58
2021/04/24 11:54:05;;;;;;;;;;;;;;;18.88;65.06;101514.63;5045070;28;1456;-59
2021/04/24 11:56:31;;;;;;;;;;;;;;;18.86;65.04;101508.50;5042106;28;1473;-62
2021/04/24 11:58:59;;;;;;;;;;;;;;;18.88;64.99;101509.25;5053557;28;2241;-59
2021/04/24 12:01:26;;;;;;;;;;;;;;;18.87;64.99;101510.22;5040622;28;1609;-59
2021/04/24 12:03:53;;;;;;;;;;;;;;;18.87;65.08;101507.53;5046658;28;1878;-58
2021/04/24 12:06:35;;;;;;;;;;;;;;;18.84;65.18;101489.88;5044636;28;1570;-62
2021/04/24 12:09:02;;;;;;;;;;;;;;;18.84;65.05;101491.66;5041165;28;1661;-62
2021/04/24 12:11:29;;;;;;;;;;;;;;;18.87;64.88;101486.94;5041037;28;1545;-59
2021/04/24 12:13:55;;;;;;;;;;;;;;;18.88;64.78;101487.81;5040888;28;1418;-62
2021/04/24 12:16:35;;;;;;;;;;;;;;;18.86;65.03;101469.16;5042139;28;1594;-59
2021/04/24 12:19:16;;;;;;;;;;;;;;;18.86;65.00;101474.53;5043746;28;1925;-62
2021/04/24 12:21:42;;;;;;;;;;;;;;;18.90;64.88;101464.44;5046997;28;1791;-59
2021/04/24 12:24:08;;;;;;;;;;;;;;;18.87;64.86;101459.28;5042316;28;1490;-58
2021/04/24 12:26:34;;;;;;;;;;;;;;;18.88;65.19;101461.03;5040581;28;1374;-58
2021/04/24 12:29:02;;;;;;;;;;;;;;;18.89;64.99;101462.72;5040533;28;1565;-62
2021/04/24 12:31:31;;;;;;;;;;;;;;;18.87;64.85;101453.94;5042375;28;1447;-58
2021/04/24 12:33:57;;;;;;;;;;;;;;;18.86;64.88;101431.66;5039568;28;1081;-62
2021/04/24 12:36:37;;;;;;;;;;;;;;;18.86;64.93;101441.50;5048309;28;1386;-61
2021/04/24 12:39:14;;;;;;;;;;;;;;;18.86;64.68;101433.44;5048145;28;1898;-58
2021/04/24 12:41:46;;;;;;;;;;;;;;;18.87;65.00;101432.50;5045665;28;1432;-62
2021/04/24 12:44:25;;;;;;;;;;;;;;;18.83;64.85;101420.31;5043848;28;1649;-63
2021/04/24 12:46:52;;;;;;;;;;;;;;;18.86;64.76;101423.63;5039683;28;1279;-58
2021/04/24 12:49:18;;;;;;;;;;;;;;;18.84;65.06;101422.88;5043513;28;1063;-59